createdAt,value
2022-10-10T04:54:22.744Z,13.07
2022-10-10T04:59:44.008Z,28.08
2022-10-10T05:05:05.473Z,14.32
2022-10-10T05:10:26.349Z,12.88
2022-10-10T05:15:51.172Z,8.57
2022-10-10T05:21:13.449Z,8.55
2022-10-10T05:26:34.481Z,6.90
2022-10-10T05:31:58.354Z,6.30
2022-10-10T05:37:19.507Z,6.43
2022-10-10T05:42:40.432Z,6.68
2022-10-10T05:48:01.297Z,7.40
2022-10-10T05:53:23.486Z,6.85
2022-10-10T05:58:44.977Z,6.05
2022-10-10T06:09:26.605Z,6.00
2022-10-10T06:14:47.423Z,6.07
2022-10-10T06:20:08.779Z,5.63
2022-10-10T06:31:02.994Z,5.50
2022-10-10T06:36:23.548Z,5.70
2022-10-10T06:41:44.463Z,5.50
2022-10-10T06:47:05.519Z,6.22
2022-10-10T06:52:26.066Z,4.72
2022-10-10T06:57:47.009Z,5.75
2022-10-10T07:03:12.176Z,4.80
2022-10-10T07:08:33.221Z,5.05
2022-10-10T07:13:54.213Z,5.38
2022-10-10T07:24:37.006Z,5.00
2022-10-10T07:29:58.142Z,5.30
2022-10-10T07:35:19.092Z,6.35
2022-10-10T07:40:41.359Z,5.43
2022-10-10T07:46:04.033Z,5.10
2022-10-10T07:51:26.698Z,5.95
2022-10-10T07:56:47.527Z,5.03
2022-10-10T08:02:09.694Z,5.28
2022-10-10T08:07:30.751Z,5.45
2022-10-10T08:12:51.875Z,4.15
2022-10-10T08:18:13.046Z,4.38
2022-10-10T08:23:35.091Z,4.13
2022-10-10T08:28:56.202Z,5.50
2022-10-10T08:34:17.190Z,3.00
2022-10-10T08:39:37.979Z,3.08
2022-10-10T08:45:04.966Z,3.20
2022-10-10T08:50:33.283Z,3.75
2022-10-10T08:55:55.833Z,3.17
2022-10-10T09:01:23.761Z,2.88
2022-10-10T09:07:12.180Z,2.38
2022-10-10T09:12:53.479Z,2.40
2022-10-10T09:18:33.453Z,3.33
2022-10-10T09:24:16.369Z,3.00
2022-10-10T09:29:43.824Z,2.90
2022-10-10T09:35:22.666Z,2.83
2022-10-10T09:41:42.358Z,2.88
2022-10-10T09:47:03.250Z,2.85
2022-10-10T09:52:28.400Z,2.90
2022-10-10T09:57:52.009Z,3.22
2022-10-10T10:03:22.815Z,3.08
2022-10-10T10:08:46.758Z,2.97
2022-10-10T10:14:27.141Z,3.33
2022-10-10T10:19:48.092Z,3.13
2022-10-10T10:25:37.522Z,3.25
2022-10-10T10:30:59.175Z,2.85
2022-10-10T10:36:59.026Z,2.67
2022-10-10T10:42:41.221Z,2.60
2022-10-10T10:48:22.644Z,2.53
2022-10-10T10:54:11.505Z,2.63
2022-10-10T11:00:25.705Z,2.40
2022-10-10T11:05:48.182Z,2.40
2022-10-10T11:11:53.737Z,2.05
2022-10-10T11:17:37.768Z,3.00
2022-10-10T11:23:12.024Z,2.90
2022-10-10T11:28:44.956Z,2.55
2022-10-10T11:34:16.928Z,2.60
2022-10-10T11:39:57.058Z,2.35
2022-10-10T11:45:26.554Z,3.10
2022-10-10T11:50:54.174Z,2.73
2022-10-10T11:56:14.705Z,2.70
2022-10-10T12:01:46.754Z,2.90
2022-10-10T12:07:40.273Z,2.15
2022-10-10T12:13:24.312Z,2.75
2022-10-10T12:18:51.483Z,2.58
2022-10-10T12:24:14.128Z,3.22
2022-10-10T12:29:56.020Z,2.50
2022-10-10T12:35:40.219Z,2.70
2022-10-10T12:41:01.205Z,2.60
2022-10-10T12:46:28.465Z,2.75
2022-10-10T12:52:01.252Z,2.40
2022-10-10T12:57:31.914Z,2.53
2022-10-10T13:02:59.020Z,2.60
2022-10-10T13:08:25.160Z,2.72
2022-10-10T13:13:51.615Z,3.30
2022-10-10T13:19:24.587Z,3.00
2022-10-10T13:24:46.558Z,3.50
2022-10-10T13:30:07.884Z,3.58
2022-10-10T13:35:30.208Z,3.22
2022-10-10T13:40:51.955Z,3.63
2022-10-10T13:46:32.426Z,3.25
2022-10-10T13:52:05.924Z,3.60
2022-10-10T13:57:27.753Z,2.97
2022-10-10T14:02:49.768Z,3.30
2022-10-10T14:08:24.751Z,3.80
2022-10-10T14:13:53.717Z,5.20
2022-10-10T14:19:19.410Z,3.25
2022-10-10T14:24:40.493Z,3.38
2022-10-10T14:30:00.971Z,3.20
2022-10-10T14:35:21.953Z,3.53
2022-10-10T14:40:44.865Z,4.00
2022-10-10T14:46:06.396Z,3.30
2022-10-10T14:51:33.660Z,3.55
2022-10-10T14:57:07.580Z,3.67
2022-10-10T15:02:30.681Z,2.88
2022-10-10T15:07:53.760Z,6.15
2022-10-10T15:13:15.548Z,3.58
2022-10-10T15:24:17.593Z,3.15
2022-10-10T15:29:39.413Z,2.75
2022-10-10T15:35:00.323Z,3.17
2022-10-10T15:40:23.728Z,2.70
2022-10-10T15:51:25.437Z,3.30
2022-10-10T15:56:46.236Z,2.67
2022-10-10T15:59:17.920Z,2.97
2022-10-10T16:07:30.008Z,3.10
2022-10-10T16:12:54.652Z,3.03
2022-10-10T16:18:15.496Z,2.78
2022-10-10T16:28:57.086Z,3.58
2022-10-10T16:45:00.620Z,3.50
2022-10-10T16:50:21.317Z,3.25
2022-10-10T16:55:42.673Z,3.30
2022-10-10T17:01:12.053Z,3.25
2022-10-10T17:06:37.467Z,2.75
2022-10-10T17:11:58.471Z,2.90
2022-10-10T17:17:19.406Z,3.60
2022-10-10T17:28:02.112Z,3.47
2022-10-10T17:38:44.521Z,4.93
2022-10-10T17:44:10.308Z,3.83
2022-10-10T17:49:31.417Z,3.90
2022-10-10T18:00:13.684Z,4.00
2022-10-10T18:05:36.505Z,3.50
2022-10-10T18:10:57.471Z,3.78
2022-10-10T18:16:20.921Z,3.92
2022-10-10T18:21:41.702Z,4.22
2022-10-10T18:27:02.569Z,4.80
2022-10-10T18:32:23.581Z,4.45
2022-10-10T18:43:05.363Z,5.03
2022-10-10T18:53:46.938Z,4.47
2022-10-10T18:59:12.901Z,4.72
2022-10-10T19:04:34.595Z,4.80
2022-10-10T19:09:55.217Z,4.32
2022-10-10T19:15:16.318Z,4.95
2022-10-10T19:20:39.196Z,5.15
2022-10-10T19:26:09.009Z,4.72
2022-10-10T19:31:30.915Z,5.18
2022-10-10T19:36:52.053Z,5.47
2022-10-10T19:42:13.049Z,5.65
2022-10-10T19:47:34.225Z,5.93
2022-10-10T19:53:01.840Z,5.65
2022-10-10T19:58:25.390Z,5.30
2022-10-10T20:03:48.083Z,5.05
2022-10-10T20:09:11.140Z,5.40
2022-10-10T20:14:32.514Z,5.47
2022-10-10T20:19:53.434Z,5.32
2022-10-10T20:25:14.333Z,5.82
2022-10-10T20:30:40.720Z,6.00
2022-10-10T20:36:02.169Z,5.18
2022-10-10T20:41:25.994Z,5.50
2022-10-10T20:46:47.187Z,5.28
2022-10-10T20:57:29.201Z,5.05
2022-10-10T21:02:50.098Z,4.40
2022-10-10T21:08:10.736Z,4.22
2022-10-10T21:13:33.724Z,4.00
2022-10-10T21:18:58.630Z,4.00
2022-10-10T21:24:19.742Z,4.60
2022-10-10T21:29:40.733Z,4.80
2022-10-10T21:40:22.524Z,4.28
2022-10-10T21:45:43.712Z,4.35
2022-10-10T21:51:04.954Z,4.13
2022-10-10T21:56:26.464Z,3.80
